createdAt,value
2022-11-05T00:02:34.973Z,13.05
2022-11-05T00:22:34.936Z,13.05
2022-11-05T00:42:34.650Z,13.05
2022-11-05T01:02:34.992Z,13.04
2022-11-05T01:22:34.894Z,13.04
2022-11-05T01:42:34.896Z,13.03
2022-11-05T02:02:34.713Z,13.01
2022-11-05T02:22:34.896Z,12.99
2022-11-05T02:42:34.858Z,12.97
2022-11-05T03:02:34.944Z,12.96
2022-11-05T03:22:34.855Z,12.95
2022-11-05T03:42:34.839Z,12.95
2022-11-05T04:02:34.647Z,12.94
2022-11-05T04:22:34.806Z,12.93
2022-11-05T04:42:34.792Z,12.91
2022-11-05T05:02:34.798Z,12.88
2022-11-05T05:22:34.791Z,12.86
2022-11-05T05:42:38.846Z,12.85
2022-11-05T06:02:34.825Z,12.84
2022-11-05T06:22:34.778Z,12.84
2022-11-05T06:42:34.751Z,12.82
2022-11-05T07:22:34.779Z,12.76
2022-11-05T07:42:34.720Z,12.75
2022-11-05T08:02:34.697Z,12.74
2022-11-05T08:22:34.750Z,12.73
2022-11-05T08:42:34.664Z,12.7
2022-11-05T09:02:34.672Z,12.67
2022-11-05T09:22:37.921Z,12.65
2022-11-05T09:42:34.588Z,12.64
2022-11-05T10:02:34.694Z,12.63
2022-11-05T10:22:34.522Z,12.61
2022-11-05T10:42:34.492Z,12.58
2022-11-05T11:02:34.522Z,12.56
2022-11-05T11:22:34.431Z,12.54
2022-11-05T12:02:34.397Z,12.53
2022-11-05T12:22:34.379Z,12.53
2022-11-05T12:42:34.067Z,12.52
2022-11-05T13:22:34.261Z,12.5
2022-11-05T13:42:34.231Z,12.49
2022-11-05T14:02:34.268Z,12.48
2022-11-05T14:22:34.172Z,12.47
2022-11-05T14:42:34.150Z,12.47
2022-11-05T15:02:34.220Z,12.47
2022-11-05T15:22:34.111Z,12.47
2022-11-05T15:42:34.063Z,12.47
2022-11-05T16:02:34.183Z,12.47
2022-11-05T16:22:34.050Z,12.47
2022-11-05T17:02:34.123Z,12.47
2022-11-05T17:22:33.985Z,12.47
2022-11-05T17:42:33.965Z,12.47
2022-11-05T18:02:34.135Z,12.47
2022-11-05T18:22:33.647Z,12.48
2022-11-05T18:42:33.900Z,12.48
2022-11-05T19:02:33.987Z,12.48
2022-11-05T19:22:33.869Z,12.48
2022-11-05T19:42:33.815Z,12.47
2022-11-05T20:02:33.994Z,12.47
2022-11-05T20:42:33.778Z,12.47
2022-11-05T21:22:33.735Z,12.46
2022-11-05T21:42:33.703Z,12.46
2022-11-05T22:02:33.810Z,12.46
2022-11-05T22:22:33.671Z,12.46
2022-11-05T22:42:33.798Z,12.46
2022-11-05T23:22:33.611Z,12.45
2022-11-05T23:42:33.613Z,12.45
